createdAt,value
2018-04-18T00:01:11.110Z,14.60
2018-04-18T00:03:37.345Z,14.60
2018-04-18T00:06:03.593Z,14.60
2018-04-18T00:08:30.594Z,14.50
2018-04-18T00:10:56.805Z,14.50
2018-04-18T00:13:23.022Z,14.50
2018-04-18T00:15:49.265Z,14.50
2018-04-18T00:18:15.526Z,14.50
2018-04-18T00:20:41.773Z,14.40
2018-04-18T00:23:08.784Z,14.30
2018-04-18T00:25:35.034Z,14.20
2018-04-18T00:28:01.285Z,14.20
2018-04-18T00:30:27.482Z,14.20
2018-04-18T00:32:53.746Z,14.10
2018-04-18T00:35:20.094Z,14.10
2018-04-18T00:37:46.338Z,14.10
2018-04-18T00:40:12.538Z,14.10
2018-04-18T00:42:38.766Z,14.10
2018-04-18T00:45:05.068Z,14.10
2018-04-18T00:47:32.066Z,14.00
2018-04-18T00:49:58.335Z,13.90
2018-04-18T00:52:24.568Z,13.90
2018-04-18T00:54:51.583Z,13.90
2018-04-18T00:57:17.840Z,13.80
2018-04-18T00:59:44.051Z,13.80
2018-04-18T01:02:10.339Z,13.80
2018-04-18T01:04:36.584Z,13.80
2018-04-18T01:07:02.871Z,13.70
2018-04-18T01:09:29.963Z,13.50
2018-04-18T01:11:56.275Z,13.50
2018-04-18T01:14:22.574Z,13.40
2018-04-18T01:16:49.619Z,13.20
2018-04-18T01:19:16.647Z,13.20
2018-04-18T01:21:42.960Z,13.20
2018-04-18T01:24:09.233Z,13.30
2018-04-18T01:26:36.271Z,13.40
2018-04-18T01:29:03.322Z,13.30
2018-04-18T01:31:30.266Z,13.30
2018-04-18T01:33:57.235Z,13.30
2018-04-18T01:36:23.512Z,13.20
2018-04-18T01:38:49.776Z,13.20
2018-04-18T01:41:15.985Z,13.10
2018-04-18T01:43:42.246Z,13.10
2018-04-18T01:46:08.525Z,13.10
2018-04-18T01:48:34.877Z,13.10
2018-04-18T01:51:01.850Z,13.10
2018-04-18T01:53:28.111Z,13.00
2018-04-18T01:55:54.407Z,13.10
2018-04-18T01:58:20.664Z,13.00
2018-04-18T02:00:46.983Z,13.00
2018-04-18T02:03:13.275Z,12.90
2018-04-18T02:05:40.247Z,12.90
2018-04-18T02:08:06.475Z,12.80
2018-04-18T02:10:32.741Z,12.80
2018-04-18T02:12:58.970Z,12.70
2018-04-18T02:15:25.201Z,12.70
2018-04-18T02:17:52.520Z,12.70
2018-04-18T02:20:18.742Z,12.70
2018-04-18T02:22:45.027Z,12.70
2018-04-18T02:25:11.292Z,12.70
2018-04-18T02:27:37.562Z,12.80
2018-04-18T02:30:03.888Z,12.70
2018-04-18T02:32:30.075Z,12.80
2018-04-18T02:34:56.306Z,12.70
2018-04-18T02:37:22.714Z,12.70
2018-04-18T02:39:54.074Z,12.60
2018-04-18T02:42:21.027Z,12.60
2018-04-18T02:44:47.245Z,12.60
2018-04-18T02:47:14.223Z,12.60
2018-04-18T02:49:40.532Z,12.60
2018-04-18T02:52:06.822Z,12.60
2018-04-18T02:54:33.056Z,12.60
2018-04-18T02:56:59.348Z,12.60
2018-04-18T02:59:25.617Z,12.60
2018-04-18T03:01:51.880Z,12.60
2018-04-18T03:04:18.127Z,12.50
2018-04-18T03:06:44.364Z,12.50
2018-04-18T03:09:10.636Z,12.40
2018-04-18T03:11:36.869Z,12.40
2018-04-18T03:14:03.071Z,12.30
2018-04-18T03:16:29.292Z,12.30
2018-04-18T03:18:55.531Z,12.30
2018-04-18T03:21:21.824Z,12.30
2018-04-18T03:23:48.044Z,12.30
2018-04-18T03:26:14.328Z,12.30
2018-04-18T03:28:40.608Z,12.30
2018-04-18T03:31:06.845Z,12.30
2018-04-18T03:33:33.053Z,12.30
2018-04-18T03:35:59.413Z,12.30
2018-04-18T03:38:25.613Z,12.20
2018-04-18T03:40:51.865Z,12.20
2018-04-18T03:43:18.123Z,12.20
2018-04-18T03:45:44.358Z,12.20
2018-04-18T03:48:10.636Z,12.10
2018-04-18T03:50:36.914Z,12.10
2018-04-18T03:53:03.228Z,12.00
2018-04-18T03:55:29.505Z,12.00
2018-04-18T03:58:02.144Z,11.90
2018-04-18T04:00:28.445Z,12.00
2018-04-18T04:02:54.660Z,11.90
2018-04-18T04:05:20.869Z,11.90
2018-04-18T04:07:47.146Z,11.80
2018-04-18T04:10:13.441Z,11.80
2018-04-18T04:12:39.673Z,11.80
2018-04-18T04:15:05.972Z,11.80
2018-04-18T04:17:44.552Z,11.80
2018-04-18T04:20:23.149Z,11.70
2018-04-18T04:23:01.657Z,11.60
2018-04-18T04:25:28.981Z,11.60
2018-04-18T04:27:55.232Z,11.60
2018-04-18T04:30:21.505Z,11.60
2018-04-18T04:32:47.807Z,11.50
2018-04-18T04:35:14.080Z,11.50
2018-04-18T04:37:41.074Z,11.50
2018-04-18T04:40:07.393Z,11.50
2018-04-18T04:42:33.700Z,11.50
2018-04-18T04:45:00.767Z,11.60
2018-04-18T04:47:26.952Z,11.60
2018-04-18T04:49:53.228Z,11.70
2018-04-18T04:52:19.514Z,11.80
2018-04-18T04:54:45.821Z,11.90
2018-04-18T04:57:13.097Z,11.90
2018-04-18T04:59:39.346Z,11.90
2018-04-18T05:02:06.810Z,11.80
2018-04-18T05:04:33.053Z,11.80
2018-04-18T05:07:01.422Z,11.70
2018-04-18T05:09:27.705Z,11.60
2018-04-18T05:11:53.962Z,11.50
2018-04-18T05:14:20.917Z,11.70
2018-04-18T05:16:47.169Z,11.60
2018-04-18T05:19:13.428Z,11.60
2018-04-18T05:21:39.701Z,11.70
2018-04-18T05:24:05.958Z,11.80
2018-04-18T05:26:32.211Z,11.70
2018-04-18T05:29:00.537Z,11.80
2018-04-18T05:31:26.766Z,11.80
2018-04-18T05:33:53.043Z,11.90
2018-04-18T05:36:19.314Z,11.90
2018-04-18T05:38:46.349Z,11.90
2018-04-18T05:41:12.674Z,11.90
2018-04-18T05:43:39.650Z,11.80
2018-04-18T05:46:05.864Z,11.80
2018-04-18T05:48:32.134Z,11.80
2018-04-18T05:50:58.435Z,11.80
2018-04-18T05:53:25.484Z,11.80
2018-04-18T05:55:51.806Z,11.80
2018-04-18T05:58:18.810Z,11.80
2018-04-18T06:00:45.099Z,11.80
2018-04-18T06:03:11.315Z,11.90
2018-04-18T06:05:37.625Z,11.90
2018-04-18T06:08:04.634Z,11.90
2018-04-18T06:10:30.861Z,11.90
2018-04-18T06:12:57.129Z,12.00
2018-04-18T06:15:24.131Z,12.10
2018-04-18T06:17:50.383Z,12.00
2018-04-18T06:20:16.652Z,12.10
2018-04-18T06:22:42.950Z,12.10
2018-04-18T06:25:09.194Z,12.10
2018-04-18T06:27:36.189Z,12.20
2018-04-18T06:30:02.479Z,12.10
2018-04-18T06:32:28.768Z,12.20
2018-04-18T06:34:55.037Z,12.20
2018-04-18T06:37:22.141Z,12.30
2018-04-18T06:39:48.413Z,12.30
2018-04-18T06:42:15.360Z,12.40
2018-04-18T06:44:41.668Z,12.30
2018-04-18T06:47:08.733Z,12.50
2018-04-18T06:49:35.755Z,12.60
2018-04-18T06:52:02.034Z,12.50
2018-04-18T06:54:29.426Z,12.60
2018-04-18T06:56:55.735Z,12.60
2018-04-18T06:59:23.090Z,12.70
2018-04-18T07:01:49.385Z,12.70
2018-04-18T07:04:15.587Z,12.80
2018-04-18T07:06:41.857Z,12.90
2018-04-18T07:09:08.158Z,13.00
2018-04-18T07:11:34.426Z,13.00
2018-04-18T07:14:00.767Z,13.00
2018-04-18T07:16:27.039Z,13.10
2018-04-18T07:18:53.316Z,13.10
2018-04-18T07:21:19.568Z,13.20
2018-04-18T07:23:45.885Z,13.20
2018-04-18T07:26:12.142Z,13.30
2018-04-18T07:28:38.402Z,13.40
2018-04-18T07:31:04.686Z,13.50
2018-04-18T07:33:30.935Z,13.50
2018-04-18T07:35:57.230Z,13.70
2018-04-18T07:38:23.518Z,13.70
2018-04-18T07:40:50.527Z,14.00
2018-04-18T07:43:16.734Z,14.00
2018-04-18T07:45:42.983Z,14.10
2018-04-18T07:48:09.305Z,14.10
2018-04-18T07:50:35.619Z,14.20
2018-04-18T07:53:01.926Z,14.30
2018-04-18T07:55:28.180Z,14.50
2018-04-18T07:57:54.500Z,14.60
2018-04-18T08:00:20.820Z,14.60
2018-04-18T08:02:47.087Z,14.80
2018-04-18T08:05:13.416Z,14.90
2018-04-18T08:07:39.686Z,15.00
2018-04-18T08:10:05.915Z,15.10
2018-04-18T08:12:33.029Z,15.20
2018-04-18T08:14:59.270Z,15.10
2018-04-18T08:17:25.504Z,15.40
2018-04-18T08:19:51.787Z,15.50
2018-04-18T08:22:18.075Z,15.70
2018-04-18T08:24:44.367Z,15.80
2018-04-18T08:27:10.664Z,15.90
2018-04-18T08:29:36.938Z,16.10
2018-04-18T08:32:03.236Z,16.30
2018-04-18T08:34:29.558Z,16.40
2018-04-18T08:36:55.819Z,16.50
2018-04-18T08:39:22.145Z,16.60
2018-04-18T08:41:48.430Z,16.70
2018-04-18T08:44:14.743Z,16.80
2018-04-18T08:46:41.759Z,17.00
2018-04-18T08:49:08.070Z,16.90
2018-04-18T08:51:34.361Z,17.00
2018-04-18T08:54:00.635Z,17.20
2018-04-18T08:56:26.886Z,17.20
2018-04-18T08:58:53.207Z,17.20
2018-04-18T09:01:19.490Z,17.30
2018-04-18T09:03:45.835Z,17.40
2018-04-18T09:06:12.127Z,17.40
2018-04-18T09:08:39.097Z,17.50
2018-04-18T09:11:05.410Z,17.50
2018-04-18T09:13:31.672Z,17.70
2018-04-18T09:15:58.082Z,17.80
2018-04-18T09:18:24.379Z,17.90
2018-04-18T09:20:51.409Z,18.10
2018-04-18T09:23:17.668Z,18.10
2018-04-18T09:25:43.926Z,18.30
2018-04-18T09:28:10.163Z,18.30
2018-04-18T09:30:36.446Z,18.40
2018-04-18T09:33:03.461Z,18.60
2018-04-18T09:35:29.733Z,18.60
2018-04-18T09:37:56.774Z,19.00
2018-04-18T09:40:23.772Z,19.00
2018-04-18T09:42:50.036Z,19.00
2018-04-18T09:45:17.033Z,19.20
2018-04-18T09:47:43.309Z,19.20
2018-04-18T09:50:10.275Z,19.40
2018-04-18T09:52:37.248Z,19.40
2018-04-18T09:55:03.598Z,19.30
2018-04-18T09:57:29.857Z,19.70
2018-04-18T09:59:56.175Z,19.80
2018-04-18T10:02:28.412Z,19.80
2018-04-18T10:04:54.754Z,20.00
2018-04-18T10:07:21.041Z,20.10
2018-04-18T10:09:48.073Z,20.10
2018-04-18T10:12:15.038Z,20.20
2018-04-18T10:14:41.321Z,20.20
2018-04-18T10:17:07.625Z,20.40
2018-04-18T10:19:33.901Z,20.40
2018-04-18T10:22:00.970Z,20.60
2018-04-18T10:24:27.962Z,20.90
2018-04-18T10:26:54.241Z,20.80
2018-04-18T10:29:21.262Z,21.10
2018-04-18T10:31:47.536Z,21.10
2018-04-18T10:34:13.787Z,21.20
2018-04-18T10:36:40.061Z,21.40
2018-04-18T10:39:07.186Z,21.40
2018-04-18T10:41:33.433Z,21.30
2018-04-18T10:44:00.473Z,21.60
2018-04-18T10:46:26.712Z,21.60
2018-04-18T10:48:53.725Z,21.80
2018-04-18T10:51:20.005Z,21.70
2018-04-18T10:53:46.217Z,21.80
2018-04-18T10:56:13.265Z,21.80
2018-04-18T10:58:40.266Z,21.80
2018-04-18T11:01:06.502Z,21.80
2018-04-18T11:03:32.746Z,22.00
2018-04-18T11:05:59.039Z,21.90
2018-04-18T11:08:25.242Z,22.10
2018-04-18T11:10:51.462Z,22.20
2018-04-18T11:13:17.725Z,22.30
2018-04-18T11:15:44.010Z,22.50
2018-04-18T11:18:10.268Z,22.60
2018-04-18T11:20:36.496Z,22.70
2018-04-18T11:23:02.785Z,22.70
2018-04-18T11:25:29.782Z,22.90
2018-04-18T11:27:56.054Z,22.80
2018-04-18T11:30:22.329Z,23.00
2018-04-18T11:32:48.598Z,22.90
2018-04-18T11:35:14.853Z,22.90
2018-04-18T11:37:41.059Z,23.00
2018-04-18T11:40:07.280Z,23.00
2018-04-18T11:42:33.627Z,23.10
2018-04-18T11:44:59.923Z,23.10
2018-04-18T11:47:26.160Z,23.30
2018-04-18T11:49:52.484Z,23.40
2018-04-18T11:52:18.746Z,23.50
2018-04-18T11:54:44.974Z,23.50
2018-04-18T11:57:12.000Z,23.60
2018-04-18T11:59:38.230Z,23.50
2018-04-18T12:02:04.489Z,23.60
2018-04-18T12:04:31.523Z,23.60
2018-04-18T12:06:57.782Z,23.50
2018-04-18T12:09:24.786Z,23.80
2018-04-18T12:11:51.083Z,23.70
2018-04-18T12:14:17.450Z,23.80
2018-04-18T12:16:43.708Z,24.00
2018-04-18T12:19:10.721Z,24.00
2018-04-18T12:21:37.001Z,23.90
2018-04-18T12:24:03.269Z,24.20
2018-04-18T12:26:29.586Z,24.10
2018-04-18T12:28:55.880Z,24.20
2018-04-18T12:31:22.112Z,24.30
2018-04-18T12:33:48.417Z,24.30
2018-04-18T12:36:14.669Z,24.30
2018-04-18T12:38:40.927Z,24.30
2018-04-18T12:41:07.202Z,24.30
2018-04-18T12:43:33.453Z,24.30
2018-04-18T12:45:59.734Z,24.60
2018-04-18T12:48:26.057Z,24.80
2018-04-18T12:50:52.328Z,25.10
2018-04-18T12:53:19.368Z,25.50
2018-04-18T12:55:46.425Z,25.60
2018-04-18T12:58:13.429Z,25.50
2018-04-18T13:00:39.696Z,25.40
2018-04-18T13:03:06.703Z,25.00
2018-04-18T13:05:32.995Z,25.00
2018-04-18T13:07:59.277Z,25.00
2018-04-18T13:10:25.628Z,25.00
2018-04-18T13:12:52.652Z,25.30
2018-04-18T13:15:18.930Z,25.30
2018-04-18T13:17:45.212Z,25.30
2018-04-18T13:20:11.523Z,25.30
2018-04-18T13:22:37.821Z,25.40
2018-04-18T13:25:04.096Z,25.30
2018-04-18T13:27:30.406Z,25.50
2018-04-18T13:29:56.660Z,25.80
2018-04-18T13:32:23.023Z,26.10
2018-04-18T13:34:50.031Z,26.00
2018-04-18T13:37:16.367Z,26.00
2018-04-18T13:39:42.672Z,25.90
2018-04-18T13:42:09.016Z,25.80
2018-04-18T13:44:35.320Z,25.80
2018-04-18T13:47:01.653Z,25.80
2018-04-18T13:49:27.937Z,25.70
2018-04-18T13:51:54.951Z,25.70
2018-04-18T13:54:21.213Z,25.60
2018-04-18T13:56:48.235Z,25.60
2018-04-18T13:59:14.607Z,25.50
2018-04-18T14:01:41.632Z,26.10
2018-04-18T14:04:07.949Z,26.00
2018-04-18T14:06:34.216Z,26.40
2018-04-18T14:09:00.513Z,26.70
2018-04-18T14:11:26.816Z,26.90
2018-04-18T14:13:53.107Z,27.00
2018-04-18T14:16:19.376Z,27.10
2018-04-18T14:18:45.620Z,27.20
2018-04-18T14:21:11.860Z,27.40
2018-04-18T14:23:38.912Z,27.60
2018-04-18T14:26:05.169Z,27.50
2018-04-18T14:28:31.422Z,27.80
2018-04-18T14:30:57.646Z,27.90
2018-04-18T14:33:23.929Z,28.00
2018-04-18T14:35:50.899Z,28.10
2018-04-18T14:38:17.117Z,28.10
2018-04-18T14:40:44.146Z,28.10
2018-04-18T14:43:10.401Z,28.00
2018-04-18T14:45:36.654Z,28.10
2018-04-18T14:48:02.912Z,28.10
2018-04-18T14:50:29.157Z,28.10
2018-04-18T14:52:55.489Z,28.10
2018-04-18T14:55:21.759Z,28.10
2018-04-18T14:57:48.036Z,28.10
2018-04-18T15:00:14.350Z,28.00
2018-04-18T15:02:40.626Z,27.50
2018-04-18T15:05:07.693Z,27.20
2018-04-18T15:07:33.913Z,27.20
2018-04-18T15:10:00.167Z,27.30
2018-04-18T15:12:26.479Z,27.40
2018-04-18T15:14:52.729Z,27.50
2018-04-18T15:17:18.947Z,27.50
2018-04-18T15:19:45.186Z,27.60
2018-04-18T15:22:11.414Z,27.50
2018-04-18T15:24:37.655Z,27.40
2018-04-18T15:27:03.932Z,27.20
2018-04-18T15:29:30.204Z,27.20
2018-04-18T15:31:56.433Z,27.20
2018-04-18T15:34:22.720Z,27.20
2018-04-18T15:36:49.726Z,27.20
2018-04-18T15:39:15.993Z,27.10
2018-04-18T15:41:42.220Z,27.20
2018-04-18T15:44:09.236Z,27.10
2018-04-18T15:46:35.482Z,27.00
2018-04-18T15:49:02.471Z,27.00
2018-04-18T15:51:28.725Z,27.00
2018-04-18T15:53:55.030Z,27.00
2018-04-18T15:56:21.326Z,27.00
2018-04-18T15:58:47.633Z,27.00
2018-04-18T16:01:14.670Z,27.00
2018-04-18T16:03:41.003Z,27.00
2018-04-18T16:06:07.257Z,27.00
2018-04-18T16:08:33.489Z,27.00
2018-04-18T16:11:00.461Z,26.90
2018-04-18T16:13:26.751Z,26.90
2018-04-18T16:15:53.779Z,26.90
2018-04-18T16:18:20.073Z,26.80
2018-04-18T16:20:47.032Z,26.70
2018-04-18T16:23:13.257Z,26.70
2018-04-18T16:25:39.552Z,26.70
2018-04-18T16:28:05.805Z,26.60
2018-04-18T16:30:39.817Z,26.50
2018-04-18T16:33:06.102Z,26.40
2018-04-18T16:35:33.133Z,26.20
2018-04-18T16:37:59.397Z,26.20
2018-04-18T16:40:25.654Z,26.10
2018-04-18T16:42:51.949Z,26.00
2018-04-18T16:45:18.985Z,25.80
2018-04-18T16:47:50.308Z,25.80
2018-04-18T16:50:16.515Z,25.80
2018-04-18T16:52:42.785Z,25.70
2018-04-18T16:55:09.081Z,25.60
2018-04-18T16:57:35.329Z,25.50
2018-04-18T17:00:01.627Z,25.30
2018-04-18T17:02:27.905Z,25.30
2018-04-18T17:04:54.915Z,25.20
2018-04-18T17:07:21.241Z,25.20
2018-04-18T17:09:47.533Z,25.20
2018-04-18T17:12:13.765Z,25.20
2018-04-18T17:14:40.125Z,25.20
2018-04-18T17:17:06.386Z,25.10
2018-04-18T17:19:32.616Z,25.10
2018-04-18T17:21:58.889Z,25.10
2018-04-18T17:24:25.158Z,25.00
2018-04-18T17:26:51.441Z,25.00
2018-04-18T17:29:17.661Z,24.80
2018-04-18T17:31:43.949Z,24.80
2018-04-18T17:34:10.247Z,24.70
2018-04-18T17:36:36.617Z,24.70
2018-04-18T17:39:02.925Z,24.60
2018-04-18T17:41:29.185Z,24.50
2018-04-18T17:43:56.236Z,24.40
2018-04-18T17:46:23.249Z,24.40
2018-04-18T17:48:49.554Z,24.30
2018-04-18T17:51:15.797Z,24.30
2018-04-18T17:53:42.062Z,24.30
2018-04-18T17:56:08.300Z,24.30
2018-04-18T17:58:35.321Z,24.20
2018-04-18T18:01:01.575Z,24.10
2018-04-18T18:03:28.590Z,24.00
2018-04-18T18:05:54.845Z,24.00
2018-04-18T18:08:21.865Z,23.90
2018-04-18T18:10:48.139Z,24.00
2018-04-18T18:13:14.369Z,23.90
2018-04-18T18:15:40.614Z,23.80
2018-04-18T18:18:06.894Z,23.80
2018-04-18T18:20:33.129Z,23.70
2018-04-18T18:23:00.157Z,23.50
2018-04-18T18:25:26.372Z,23.50
2018-04-18T18:27:52.662Z,23.50
2018-04-18T18:30:19.965Z,23.50
2018-04-18T18:32:46.309Z,23.50
2018-04-18T18:35:12.599Z,23.50
2018-04-18T18:37:38.881Z,23.40
2018-04-18T18:40:05.898Z,23.40
2018-04-18T18:42:32.189Z,23.30
2018-04-18T18:44:58.473Z,23.30
2018-04-18T18:47:24.729Z,23.20
2018-04-18T18:49:51.058Z,23.20
2018-04-18T18:52:17.283Z,23.10
2018-04-18T18:54:44.264Z,23.00
2018-04-18T18:57:10.501Z,23.00
2018-04-18T18:59:36.795Z,23.00
2018-04-18T19:02:03.050Z,22.80
2018-04-18T19:04:29.402Z,22.60
2018-04-18T19:06:55.719Z,22.50
2018-04-18T19:09:21.948Z,22.40
2018-04-18T19:11:52.088Z,22.40
2018-04-18T19:14:18.401Z,22.30
2018-04-18T19:16:44.698Z,22.30
2018-04-18T19:19:10.989Z,22.20
2018-04-18T19:21:38.063Z,22.00
2018-04-18T19:24:04.350Z,22.00
2018-04-18T19:26:31.481Z,21.90
2018-04-18T19:28:57.892Z,21.80
2018-04-18T19:31:24.129Z,21.70
2018-04-18T19:33:50.406Z,21.60
2018-04-18T19:36:16.670Z,21.60
2018-04-18T19:38:42.910Z,21.40
2018-04-18T19:41:09.218Z,21.30
2018-04-18T19:43:35.501Z,20.90
2018-04-18T19:46:01.833Z,20.60
2018-04-18T19:48:28.232Z,20.60
2018-04-18T19:50:54.576Z,20.40
2018-04-18T19:53:20.980Z,20.50
2018-04-18T19:55:47.323Z,20.40
2018-04-18T19:58:13.612Z,20.30
2018-04-18T20:00:39.941Z,20.10
2018-04-18T20:03:06.177Z,19.80
2018-04-18T20:05:32.481Z,19.80
2018-04-18T20:07:59.521Z,19.50
2018-04-18T20:10:25.859Z,19.40
2018-04-18T20:12:52.107Z,19.10
2018-04-18T20:15:19.131Z,18.40
2018-04-18T20:17:45.408Z,18.30
2018-04-18T20:20:11.658Z,18.40
2018-04-18T20:22:38.058Z,18.40
2018-04-18T20:25:04.358Z,18.50
2018-04-18T20:27:30.665Z,18.60
2018-04-18T20:29:57.074Z,18.40
2018-04-18T20:32:23.340Z,18.30
2018-04-18T20:34:49.629Z,18.20
2018-04-18T20:37:15.899Z,18.20
2018-04-18T20:39:42.157Z,18.20
2018-04-18T20:42:09.133Z,18.40
2018-04-18T20:44:35.438Z,18.40
2018-04-18T20:47:02.464Z,18.40
2018-04-18T20:49:28.712Z,18.30
2018-04-18T20:51:54.996Z,18.20
2018-04-18T20:54:21.337Z,18.20
2018-04-18T20:56:47.669Z,18.00
2018-04-18T20:59:13.970Z,17.80
2018-04-18T21:01:40.357Z,17.70
2018-04-18T21:04:07.351Z,17.60
2018-04-18T21:06:33.619Z,17.50
2018-04-18T21:08:59.906Z,17.70
2018-04-18T21:11:26.196Z,17.80
2018-04-18T21:13:52.445Z,17.70
2018-04-18T21:16:18.713Z,17.90
2018-04-18T21:18:45.017Z,18.10
2018-04-18T21:21:11.270Z,18.00
2018-04-18T21:23:37.506Z,18.00
2018-04-18T21:26:03.813Z,18.20
2018-04-18T21:28:31.093Z,18.30
2018-04-18T21:30:57.382Z,18.10
2018-04-18T21:33:23.620Z,18.20
2018-04-18T21:35:49.873Z,18.10
2018-04-18T21:38:16.174Z,18.00
2018-04-18T21:40:42.484Z,18.00
2018-04-18T21:43:08.724Z,18.00
2018-04-18T21:45:34.964Z,17.90
2018-04-18T21:48:01.208Z,18.00
2018-04-18T21:50:30.564Z,18.10
2018-04-18T21:52:56.783Z,18.00
2018-04-18T21:55:23.766Z,18.00
2018-04-18T21:57:50.066Z,18.00
2018-04-18T22:00:17.077Z,17.90
2018-04-18T22:02:43.372Z,17.90
2018-04-18T22:05:09.614Z,17.90
2018-04-18T22:07:35.884Z,17.90
2018-04-18T22:10:02.982Z,17.80
2018-04-18T22:12:29.213Z,17.80
2018-04-18T22:14:55.480Z,17.80
2018-04-18T22:17:21.800Z,17.80
2018-04-18T22:19:48.096Z,17.60
2018-04-18T22:22:14.342Z,17.10
2018-04-18T22:24:40.616Z,16.90
2018-04-18T22:27:07.672Z,17.10
2018-04-18T22:29:40.017Z,17.10
2018-04-18T22:32:06.281Z,17.20
2018-04-18T22:34:32.532Z,17.20
2018-04-18T22:36:58.816Z,17.30
2018-04-18T22:39:25.791Z,17.20
2018-04-18T22:41:52.011Z,17.20
2018-04-18T22:44:18.264Z,17.20
2018-04-18T22:46:44.611Z,17.10
2018-04-18T22:49:10.916Z,16.80
2018-04-18T22:51:37.198Z,16.90
2018-04-18T22:54:04.207Z,16.90
2018-04-18T22:56:30.512Z,16.80
2018-04-18T22:58:56.780Z,16.90
2018-04-18T23:01:23.080Z,16.90
2018-04-18T23:03:49.327Z,16.90
2018-04-18T23:06:15.631Z,16.80
2018-04-18T23:08:41.899Z,16.80
2018-04-18T23:11:08.128Z,16.70
2018-04-18T23:13:34.394Z,16.60
2018-04-18T23:16:00.712Z,16.70
2018-04-18T23:18:28.780Z,16.50
2018-04-18T23:20:55.013Z,16.40
2018-04-18T23:23:22.073Z,16.30
2018-04-18T23:25:48.353Z,16.20
2018-04-18T23:28:14.624Z,16.00
2018-04-18T23:30:41.645Z,15.80
2018-04-18T23:33:07.908Z,15.80
2018-04-18T23:35:35.019Z,16.00
2018-04-18T23:38:01.264Z,15.90
2018-04-18T23:40:27.484Z,16.00
2018-04-18T23:42:54.571Z,16.00
2018-04-18T23:45:20.891Z,16.00
2018-04-18T23:47:47.173Z,16.00
2018-04-18T23:50:13.500Z,15.70
2018-04-18T23:52:39.791Z,15.60
2018-04-18T23:55:06.075Z,15.60
2018-04-18T23:57:32.312Z,15.40
2018-04-18T23:59:59.290Z,15.40
